Search METAR Data

METAR Data for ENML:

ENML 211920Z 01006KT CAVOK 16/11 Q1011